createdAt,value
2017-01-06T00:00:12.862Z,969.24
2017-01-06T00:01:11.936Z,969.29
2017-01-06T00:02:13.367Z,969.26
2017-01-06T00:03:13.095Z,969.30
2017-01-06T00:04:13.631Z,969.32
2017-01-06T00:05:13.755Z,969.33
2017-01-06T00:06:13.495Z,969.34
2017-01-06T00:07:12.061Z,969.34
2017-01-06T00:08:12.260Z,969.34
2017-01-06T00:09:13.148Z,969.31
2017-01-06T00:10:12.291Z,969.39
2017-01-06T00:11:12.514Z,969.38
2017-01-06T00:12:12.532Z,969.44
2017-01-06T00:13:12.636Z,969.49
2017-01-06T00:14:13.544Z,969.49
2017-01-06T00:15:12.637Z,969.49
2017-01-06T00:16:13.947Z,969.47
2017-01-06T00:17:10.798Z,969.50
2017-01-06T00:18:10.105Z,969.50
2017-01-06T00:19:12.506Z,969.55
2017-01-06T00:20:10.835Z,969.61
2017-01-06T00:21:12.943Z,969.59
2017-01-06T00:22:13.053Z,969.56
2017-01-06T00:23:12.924Z,969.59
2017-01-06T00:24:13.089Z,969.62
2017-01-06T00:25:12.131Z,969.61
2017-01-06T00:26:13.201Z,969.60
2017-01-06T00:27:13.405Z,969.55
2017-01-06T00:28:13.024Z,969.55
2017-01-06T00:29:12.865Z,969.57
2017-01-06T00:30:10.636Z,969.50
2017-01-06T00:31:13.158Z,969.60
2017-01-06T00:32:10.464Z,969.63
2017-01-06T00:33:13.069Z,969.48
2017-01-06T00:34:12.858Z,969.52
2017-01-06T00:35:13.208Z,969.57
2017-01-06T00:36:12.738Z,969.59
2017-01-06T00:37:12.699Z,969.60
2017-01-06T00:38:12.874Z,969.58
2017-01-06T00:39:12.565Z,969.52
2017-01-06T00:40:12.424Z,969.54
2017-01-06T00:41:13.638Z,969.52
2017-01-06T00:42:10.858Z,969.51
2017-01-06T00:43:12.614Z,969.54
2017-01-06T00:44:12.789Z,969.58
2017-01-06T00:45:13.328Z,969.58
2017-01-06T00:46:15.214Z,969.53
2017-01-06T00:47:12.236Z,969.55
2017-01-06T00:48:13.208Z,969.57
2017-01-06T00:49:12.734Z,969.57
2017-01-06T00:50:11.572Z,969.58
2017-01-06T00:51:12.410Z,969.69
2017-01-06T00:52:13.971Z,969.71
2017-01-06T00:53:12.732Z,969.77
2017-01-06T00:54:12.885Z,969.78
2017-01-06T00:55:10.213Z,969.76
2017-01-06T00:56:14.163Z,969.67
2017-01-06T00:57:14.363Z,969.70
2017-01-06T00:58:14.195Z,969.73
2017-01-06T00:59:13.849Z,969.71
2017-01-06T01:00:12.905Z,969.75
2017-01-06T01:01:10.898Z,969.74
2017-01-06T01:02:10.272Z,969.81
2017-01-06T01:03:11.232Z,969.80
2017-01-06T01:04:13.213Z,969.87
2017-01-06T01:05:12.877Z,969.86
2017-01-06T01:06:11.960Z,969.87
2017-01-06T01:07:12.073Z,969.91
2017-01-06T01:08:12.651Z,969.87
2017-01-06T01:09:15.966Z,969.91
2017-01-06T01:10:12.163Z,969.88
2017-01-06T01:11:15.161Z,969.87
2017-01-06T01:12:15.865Z,969.87
2017-01-06T01:13:13.157Z,969.92
2017-01-06T01:14:12.290Z,969.93
2017-01-06T01:15:11.376Z,969.95
2017-01-06T01:16:13.362Z,970.02
2017-01-06T01:17:13.952Z,970.01
2017-01-06T01:18:12.163Z,970.04
2017-01-06T01:19:15.041Z,970.05
2017-01-06T01:20:14.601Z,970.06
2017-01-06T01:21:14.111Z,970.11
2017-01-06T01:22:14.272Z,970.06
2017-01-06T01:23:17.038Z,970.05
2017-01-06T01:24:10.793Z,970.02
2017-01-06T01:25:10.112Z,970.08
2017-01-06T01:26:13.392Z,970.11
2017-01-06T01:27:12.625Z,970.12
2017-01-06T01:28:13.459Z,970.14
2017-01-06T01:29:14.179Z,970.14
2017-01-06T01:30:14.648Z,970.13
2017-01-06T01:31:13.030Z,970.20
2017-01-06T01:32:12.958Z,970.19
2017-01-06T01:33:16.920Z,970.23
2017-01-06T01:34:13.854Z,970.21
2017-01-06T01:35:14.486Z,970.22
2017-01-06T01:36:13.683Z,970.22
2017-01-06T01:37:14.437Z,970.24
2017-01-06T01:38:14.244Z,970.24
2017-01-06T01:39:14.273Z,970.25
2017-01-06T01:40:14.311Z,970.27
2017-01-06T01:41:15.838Z,970.24
2017-01-06T01:42:14.289Z,970.29
2017-01-06T01:43:13.715Z,970.27
2017-01-06T01:44:14.495Z,970.31
2017-01-06T01:45:14.056Z,970.33
2017-01-06T01:46:13.101Z,970.36
2017-01-06T01:47:14.569Z,970.33
2017-01-06T01:48:12.629Z,970.33
2017-01-06T01:49:13.864Z,970.35
2017-01-06T01:50:12.001Z,970.38
2017-01-06T01:51:13.172Z,970.40
2017-01-06T01:52:13.548Z,970.41
2017-01-06T01:53:16.113Z,970.43
2017-01-06T01:54:13.683Z,970.41
2017-01-06T01:55:13.209Z,970.43
2017-01-06T01:56:14.760Z,970.42
2017-01-06T01:57:12.511Z,970.44
2017-01-06T01:58:13.092Z,970.44
2017-01-06T01:59:11.369Z,970.43
2017-01-06T02:00:13.381Z,970.39
2017-01-06T02:01:13.706Z,970.41
2017-01-06T02:02:13.954Z,970.41
2017-01-06T02:03:16.383Z,970.39
2017-01-06T02:04:13.498Z,970.36
2017-01-06T02:05:13.039Z,970.37
2017-01-06T02:06:12.132Z,970.37
2017-01-06T02:07:12.286Z,970.32
2017-01-06T02:08:14.489Z,970.35
2017-01-06T02:09:12.845Z,970.30
2017-01-06T02:10:14.432Z,970.36
2017-01-06T02:11:11.881Z,970.39
2017-01-06T02:12:13.331Z,970.32
2017-01-06T02:13:13.331Z,970.31
2017-01-06T02:14:14.244Z,970.31
2017-01-06T02:15:13.753Z,970.40
2017-01-06T02:16:13.522Z,970.38
2017-01-06T02:17:12.656Z,970.38
2017-01-06T02:18:12.837Z,970.45
2017-01-06T02:19:15.496Z,970.43
2017-01-06T02:20:13.943Z,970.44
2017-01-06T02:21:12.663Z,970.39
2017-01-06T02:22:13.487Z,970.42
2017-01-06T02:23:13.567Z,970.42
2017-01-06T02:24:12.579Z,970.44
2017-01-06T02:25:13.074Z,970.48
2017-01-06T02:26:12.483Z,970.52
2017-01-06T02:27:13.862Z,970.49
2017-01-06T02:28:14.369Z,970.51
2017-01-06T02:29:13.724Z,970.55
2017-01-06T02:30:13.611Z,970.56
2017-01-06T02:31:12.737Z,970.54
2017-01-06T02:32:14.713Z,970.58
2017-01-06T02:33:13.565Z,970.55
2017-01-06T02:34:13.031Z,970.64
2017-01-06T02:35:15.893Z,970.62
2017-01-06T02:36:13.000Z,970.62
2017-01-06T02:37:12.035Z,970.64
2017-01-06T02:38:13.505Z,970.65
2017-01-06T02:39:13.624Z,970.65
2017-01-06T02:40:15.109Z,970.62
2017-01-06T02:41:14.764Z,970.62
2017-01-06T02:42:13.441Z,970.61
2017-01-06T02:43:12.983Z,970.67
2017-01-06T02:44:14.510Z,970.63
2017-01-06T02:45:13.258Z,970.67
2017-01-06T02:46:13.140Z,970.66
2017-01-06T02:47:12.857Z,970.67
2017-01-06T02:48:14.287Z,970.63
2017-01-06T02:49:12.452Z,970.65
2017-01-06T02:50:14.181Z,970.66
2017-01-06T02:51:13.065Z,970.64
2017-01-06T02:52:12.993Z,970.66
2017-01-06T02:53:13.386Z,970.66
2017-01-06T02:54:13.076Z,970.66
2017-01-06T02:55:12.602Z,970.66
2017-01-06T02:56:12.741Z,970.66
2017-01-06T02:57:13.279Z,970.72
2017-01-06T02:58:13.108Z,970.68
2017-01-06T02:59:12.157Z,970.73
2017-01-06T03:00:12.842Z,970.77
2017-01-06T03:01:13.055Z,970.73
2017-01-06T03:02:13.798Z,970.78
2017-01-06T03:03:12.493Z,970.77
2017-01-06T03:04:15.427Z,970.77
2017-01-06T03:05:13.883Z,970.81
2017-01-06T03:06:12.661Z,970.84
2017-01-06T03:07:12.745Z,970.85
2017-01-06T03:08:13.082Z,970.83
2017-01-06T03:09:10.412Z,970.80
2017-01-06T03:10:13.000Z,970.84
2017-01-06T03:11:12.571Z,970.90
2017-01-06T03:12:14.572Z,970.88
2017-01-06T03:13:12.966Z,970.93
2017-01-06T03:14:14.013Z,970.90
2017-01-06T03:15:12.163Z,970.89
2017-01-06T03:16:13.801Z,970.91
2017-01-06T03:17:12.344Z,970.93
2017-01-06T03:18:12.246Z,970.91
2017-01-06T03:19:09.793Z,970.87
2017-01-06T03:20:10.979Z,970.90
2017-01-06T03:21:15.007Z,970.91
2017-01-06T03:22:14.636Z,970.87
2017-01-06T03:23:12.638Z,970.88
2017-01-06T03:24:15.136Z,970.87
2017-01-06T03:25:12.158Z,970.91
2017-01-06T03:26:12.889Z,970.90
2017-01-06T03:27:12.613Z,970.91
2017-01-06T03:28:14.009Z,970.89
2017-01-06T03:29:09.506Z,970.86
2017-01-06T03:30:12.313Z,970.90
2017-01-06T03:31:10.109Z,970.93
2017-01-06T03:32:14.728Z,970.91
2017-01-06T03:33:12.917Z,970.97
2017-01-06T03:34:12.416Z,970.98
2017-01-06T03:35:14.452Z,970.97
2017-01-06T03:36:14.341Z,970.98
2017-01-06T03:37:14.668Z,971.00
2017-01-06T03:38:14.563Z,970.99
2017-01-06T03:39:16.644Z,971.02
2017-01-06T03:40:13.342Z,971.02
2017-01-06T03:41:11.039Z,971.01
2017-01-06T03:42:12.943Z,970.97
2017-01-06T03:43:15.054Z,971.01
2017-01-06T03:44:14.089Z,971.02
2017-01-06T03:45:12.251Z,970.99
2017-01-06T03:46:12.723Z,971.02
2017-01-06T03:47:13.626Z,971.03
2017-01-06T03:48:13.436Z,971.04
2017-01-06T03:49:13.040Z,971.06
2017-01-06T03:50:12.088Z,971.07
2017-01-06T03:51:10.195Z,971.01
2017-01-06T03:52:12.997Z,971.05
2017-01-06T03:53:12.739Z,971.05
2017-01-06T03:54:13.451Z,971.05
2017-01-06T03:55:13.228Z,971.06
2017-01-06T03:56:10.912Z,971.04
2017-01-06T03:57:12.837Z,971.10
2017-01-06T03:58:13.164Z,971.01
2017-01-06T03:59:12.828Z,971.03
2017-01-06T04:00:12.383Z,971.03
2017-01-06T04:01:13.978Z,971.03
2017-01-06T04:02:12.567Z,971.02
2017-01-06T04:03:14.266Z,971.01
2017-01-06T04:04:15.865Z,971.06
2017-01-06T04:05:09.298Z,971.03
2017-01-06T04:06:12.394Z,971.03
2017-01-06T04:07:13.229Z,971.05
2017-01-06T04:08:12.316Z,971.05
2017-01-06T04:09:13.262Z,971.03
2017-01-06T04:10:12.313Z,971.05
2017-01-06T04:11:14.904Z,971.04
2017-01-06T04:12:12.714Z,971.08
2017-01-06T04:13:13.560Z,971.09
2017-01-06T04:14:14.245Z,971.09
2017-01-06T04:15:10.058Z,971.13
2017-01-06T04:16:14.541Z,971.17
2017-01-06T04:17:13.209Z,971.12
2017-01-06T04:18:13.127Z,971.11
2017-01-06T04:19:12.813Z,971.09
2017-01-06T04:20:13.600Z,971.11
2017-01-06T04:21:13.745Z,971.06
2017-01-06T04:22:13.329Z,971.11
2017-01-06T04:23:10.982Z,971.10
2017-01-06T04:24:11.177Z,971.10
2017-01-06T04:25:12.263Z,971.11
2017-01-06T04:26:12.822Z,971.11
2017-01-06T04:27:12.984Z,971.13
2017-01-06T04:28:13.215Z,971.13
2017-01-06T04:29:12.858Z,971.09
2017-01-06T04:30:13.683Z,971.14
2017-01-06T04:31:14.681Z,971.17
2017-01-06T04:32:14.637Z,971.17
2017-01-06T04:33:13.061Z,971.16
2017-01-06T04:34:12.762Z,971.20
2017-01-06T04:35:11.929Z,971.19
2017-01-06T04:36:12.715Z,971.24
2017-01-06T04:37:12.732Z,971.24
2017-01-06T04:38:14.359Z,971.27
2017-01-06T04:39:14.993Z,971.26
2017-01-06T04:40:12.265Z,971.26
2017-01-06T04:41:13.481Z,971.24
2017-01-06T04:42:14.160Z,971.23
2017-01-06T04:43:12.865Z,971.24
2017-01-06T04:44:11.907Z,971.25
2017-01-06T04:45:12.547Z,971.30
2017-01-06T04:46:13.311Z,971.26
2017-01-06T04:47:11.110Z,971.25
2017-01-06T04:48:12.665Z,971.26
2017-01-06T04:49:16.228Z,971.27
2017-01-06T04:50:12.989Z,971.29
2017-01-06T04:51:12.769Z,971.26
2017-01-06T04:52:12.204Z,971.27
2017-01-06T04:53:12.317Z,971.27
2017-01-06T04:54:13.758Z,971.29
2017-01-06T04:55:10.054Z,971.31
2017-01-06T04:56:13.141Z,971.30
2017-01-06T04:57:14.662Z,971.29
2017-01-06T04:58:14.743Z,971.28
2017-01-06T04:59:14.262Z,971.29
2017-01-06T05:00:10.899Z,971.28
2017-01-06T05:01:11.123Z,971.26
2017-01-06T05:02:13.909Z,971.32
2017-01-06T05:03:13.855Z,971.30
2017-01-06T05:04:12.426Z,971.33
2017-01-06T05:05:11.260Z,971.36
2017-01-06T05:06:13.083Z,971.37
2017-01-06T05:07:12.817Z,971.36
2017-01-06T05:08:13.372Z,971.41
2017-01-06T05:09:12.353Z,971.41
2017-01-06T05:10:10.724Z,971.42
2017-01-06T05:11:13.841Z,971.40
2017-01-06T05:12:11.986Z,971.41
2017-01-06T05:13:12.119Z,971.41
2017-01-06T05:14:13.792Z,971.46
2017-01-06T05:15:11.823Z,971.45
2017-01-06T05:16:10.753Z,971.44
2017-01-06T05:17:10.232Z,971.53
2017-01-06T05:18:15.146Z,971.53
2017-01-06T05:19:12.872Z,971.49
2017-01-06T05:20:14.836Z,971.55
2017-01-06T05:21:12.065Z,971.53
2017-01-06T05:22:13.279Z,971.56
2017-01-06T05:23:13.857Z,971.55
2017-01-06T05:24:14.864Z,971.54
2017-01-06T05:25:17.312Z,971.59
2017-01-06T05:26:17.379Z,971.57
2017-01-06T05:27:14.225Z,971.59
2017-01-06T05:28:12.949Z,971.60
2017-01-06T05:29:11.894Z,971.63
2017-01-06T05:30:11.992Z,971.63
2017-01-06T05:31:12.624Z,971.62
2017-01-06T05:32:13.517Z,971.59
2017-01-06T05:33:13.589Z,971.59
2017-01-06T05:34:13.326Z,971.65
2017-01-06T05:35:11.230Z,971.70
2017-01-06T05:36:16.282Z,971.72
2017-01-06T05:37:12.345Z,971.74
2017-01-06T05:38:13.230Z,971.77
2017-01-06T05:39:13.081Z,971.76
2017-01-06T05:40:14.597Z,971.78
2017-01-06T05:41:14.635Z,971.80
2017-01-06T05:42:13.343Z,971.80
2017-01-06T05:43:14.856Z,971.77
2017-01-06T05:44:12.035Z,971.79
2017-01-06T05:45:13.859Z,971.80
2017-01-06T05:46:12.466Z,971.76
2017-01-06T05:47:15.670Z,971.79
2017-01-06T05:48:12.713Z,971.78
2017-01-06T05:49:12.434Z,971.81
2017-01-06T05:50:12.986Z,971.84
2017-01-06T05:51:13.643Z,971.86
2017-01-06T05:52:13.548Z,971.90
2017-01-06T05:53:13.320Z,971.87
2017-01-06T05:54:12.402Z,971.87
2017-01-06T05:55:13.625Z,971.86
2017-01-06T05:56:15.315Z,971.88
2017-01-06T05:57:12.950Z,971.90
2017-01-06T05:58:13.351Z,971.89
2017-01-06T05:59:12.523Z,971.84
2017-01-06T06:00:12.683Z,971.88
2017-01-06T06:01:12.216Z,971.89
2017-01-06T06:02:14.105Z,971.91
2017-01-06T06:03:13.032Z,971.92
2017-01-06T06:04:12.672Z,971.91
2017-01-06T06:05:13.236Z,971.96
2017-01-06T06:06:13.100Z,971.96
2017-01-06T06:07:12.047Z,972.00
2017-01-06T06:08:12.118Z,972.03
2017-01-06T06:09:14.604Z,972.02
2017-01-06T06:10:10.003Z,972.08
2017-01-06T06:11:12.271Z,972.09
2017-01-06T06:12:10.629Z,972.12
2017-01-06T06:13:14.099Z,972.14
2017-01-06T06:14:13.299Z,972.18
2017-01-06T06:15:12.439Z,972.20
2017-01-06T06:16:12.515Z,972.19
2017-01-06T06:17:13.909Z,972.23
2017-01-06T06:18:12.528Z,972.23
2017-01-06T06:19:12.484Z,972.26
2017-01-06T06:20:13.258Z,972.31
2017-01-06T06:21:13.020Z,972.27
2017-01-06T06:22:10.706Z,972.30
2017-01-06T06:23:12.959Z,972.30
2017-01-06T06:24:12.533Z,972.32
2017-01-06T06:25:13.528Z,972.35
2017-01-06T06:26:12.583Z,972.34
2017-01-06T06:27:13.368Z,972.35
2017-01-06T06:28:14.207Z,972.37
2017-01-06T06:29:13.900Z,972.38
2017-01-06T06:30:09.312Z,972.35
2017-01-06T06:31:12.946Z,972.37
2017-01-06T06:32:10.971Z,972.43
2017-01-06T06:33:10.210Z,972.41
2017-01-06T06:34:13.495Z,972.41
2017-01-06T06:35:13.257Z,972.42
2017-01-06T06:36:12.865Z,972.42
2017-01-06T06:37:12.591Z,972.47
2017-01-06T06:38:13.238Z,972.46
2017-01-06T06:39:12.930Z,972.45
2017-01-06T06:40:12.955Z,972.46
2017-01-06T06:41:11.530Z,972.50
2017-01-06T06:42:13.552Z,972.56
2017-01-06T06:43:12.712Z,972.57
2017-01-06T06:44:14.391Z,972.57
2017-01-06T06:45:12.924Z,972.58
2017-01-06T06:46:12.188Z,972.61
2017-01-06T06:47:12.872Z,972.61
2017-01-06T06:48:09.503Z,972.61
2017-01-06T06:49:14.971Z,972.64
2017-01-06T06:50:11.972Z,972.64
2017-01-06T06:51:12.606Z,972.65
2017-01-06T06:52:12.590Z,972.68
2017-01-06T06:53:12.772Z,972.71
2017-01-06T06:54:12.665Z,972.74
2017-01-06T06:55:14.561Z,972.70
2017-01-06T06:56:12.535Z,972.72
2017-01-06T06:57:13.714Z,972.72
2017-01-06T06:58:12.797Z,972.75
2017-01-06T06:59:13.212Z,972.73
2017-01-06T07:00:12.943Z,972.74
2017-01-06T07:01:11.913Z,972.77
2017-01-06T07:02:13.593Z,972.73
2017-01-06T07:03:13.037Z,972.73
2017-01-06T07:04:12.713Z,972.78
2017-01-06T07:05:12.879Z,972.79
2017-01-06T07:06:14.601Z,972.77
2017-01-06T07:07:12.173Z,972.83
2017-01-06T07:08:12.276Z,972.76
2017-01-06T07:09:13.985Z,972.83
2017-01-06T07:10:13.981Z,972.82
2017-01-06T07:11:12.501Z,972.89
2017-01-06T07:12:12.366Z,972.90
2017-01-06T07:13:13.961Z,972.91
2017-01-06T07:14:12.747Z,972.93
2017-01-06T07:15:13.381Z,972.88
2017-01-06T07:16:13.289Z,972.87
2017-01-06T07:17:15.337Z,972.85
2017-01-06T07:18:12.417Z,972.85
2017-01-06T07:19:14.034Z,972.84
2017-01-06T07:20:15.520Z,972.85
2017-01-06T07:21:13.526Z,972.85
2017-01-06T07:22:12.507Z,972.91
2017-01-06T07:23:15.019Z,972.91
2017-01-06T07:24:12.908Z,972.94
2017-01-06T07:25:10.331Z,972.96
2017-01-06T07:26:11.455Z,972.98
2017-01-06T07:27:12.510Z,972.99
2017-01-06T07:28:14.099Z,972.96
2017-01-06T07:29:16.051Z,972.98
2017-01-06T07:30:13.641Z,973.01
2017-01-06T07:31:13.253Z,973.03
2017-01-06T07:32:13.010Z,973.06
2017-01-06T07:33:12.527Z,973.05
2017-01-06T07:34:11.213Z,973.12
2017-01-06T07:35:13.139Z,973.12
2017-01-06T07:36:12.341Z,973.15
2017-01-06T07:37:13.629Z,973.16
2017-01-06T07:38:10.328Z,973.21
2017-01-06T07:39:12.421Z,973.19
2017-01-06T07:40:14.149Z,973.23
2017-01-06T07:41:12.728Z,973.26
2017-01-06T07:42:12.858Z,973.25
2017-01-06T07:43:12.405Z,973.25
2017-01-06T07:44:13.929Z,973.26
2017-01-06T07:45:12.695Z,973.30
2017-01-06T07:46:10.150Z,973.30
2017-01-06T07:47:12.797Z,973.30
2017-01-06T07:48:11.832Z,973.33
2017-01-06T07:49:10.311Z,973.33
2017-01-06T07:50:12.807Z,973.33
2017-01-06T07:51:12.795Z,973.32
2017-01-06T07:52:12.518Z,973.33
2017-01-06T07:53:13.406Z,973.35
2017-01-06T07:54:12.299Z,973.35
2017-01-06T07:55:11.021Z,973.35
2017-01-06T07:56:12.206Z,973.37
2017-01-06T07:57:14.902Z,973.37
2017-01-06T07:58:11.969Z,973.35
2017-01-06T07:59:12.636Z,973.38
2017-01-06T08:00:12.617Z,973.37
2017-01-06T08:01:13.166Z,973.38
2017-01-06T08:02:13.344Z,973.40
2017-01-06T08:03:12.384Z,973.41
2017-01-06T08:04:12.850Z,973.42
2017-01-06T08:05:12.727Z,973.43
2017-01-06T08:06:11.702Z,973.43
2017-01-06T08:07:13.477Z,973.42
2017-01-06T08:08:13.910Z,973.45
2017-01-06T08:09:12.718Z,973.47
2017-01-06T08:10:12.920Z,973.48
2017-01-06T08:11:09.673Z,973.48
2017-01-06T08:12:12.739Z,973.54
2017-01-06T08:13:13.790Z,973.53
2017-01-06T08:14:13.440Z,973.56
2017-01-06T08:15:10.808Z,973.56
2017-01-06T08:16:11.931Z,973.55
2017-01-06T08:17:12.058Z,973.56
2017-01-06T08:18:12.073Z,973.52
2017-01-06T08:19:12.765Z,973.55
2017-01-06T08:20:11.824Z,973.59
2017-01-06T08:21:12.436Z,973.58
2017-01-06T08:22:12.991Z,973.58
2017-01-06T08:23:12.116Z,973.61
2017-01-06T08:24:12.631Z,973.62
2017-01-06T08:25:11.371Z,973.59
2017-01-06T08:26:10.641Z,973.61
2017-01-06T08:27:14.560Z,973.61
2017-01-06T08:28:12.398Z,973.61
2017-01-06T08:29:13.872Z,973.62
2017-01-06T08:30:12.108Z,973.66
2017-01-06T08:31:13.850Z,973.63
2017-01-06T08:32:12.524Z,973.62
2017-01-06T08:33:13.753Z,973.56
2017-01-06T08:34:13.496Z,973.68
2017-01-06T08:35:13.175Z,973.70
2017-01-06T08:36:13.800Z,973.72
2017-01-06T08:37:12.351Z,973.71
2017-01-06T08:38:14.165Z,973.72
2017-01-06T08:39:11.161Z,973.75
2017-01-06T08:40:12.764Z,973.74
2017-01-06T08:41:11.624Z,973.72
2017-01-06T08:42:11.593Z,973.73
2017-01-06T08:43:12.316Z,973.71
2017-01-06T08:44:14.301Z,973.70
2017-01-06T08:45:13.264Z,973.69
2017-01-06T08:46:12.940Z,973.81
2017-01-06T08:47:11.991Z,973.73
2017-01-06T08:48:12.690Z,973.79
2017-01-06T08:49:12.604Z,973.80
2017-01-06T08:50:13.198Z,973.76
2017-01-06T08:51:12.356Z,973.78
2017-01-06T08:52:13.378Z,973.82
2017-01-06T08:53:14.350Z,973.76
2017-01-06T08:54:13.926Z,973.80
2017-01-06T08:55:12.745Z,973.81
2017-01-06T08:56:12.526Z,973.82
2017-01-06T08:57:13.116Z,973.80
2017-01-06T08:58:12.208Z,973.84
2017-01-06T08:59:12.754Z,973.82
2017-01-06T09:00:13.477Z,973.86
2017-01-06T09:01:12.527Z,973.84
2017-01-06T09:02:13.221Z,973.85
2017-01-06T09:03:13.973Z,973.84
2017-01-06T09:04:12.136Z,973.83
2017-01-06T09:05:12.625Z,973.84
2017-01-06T09:06:12.758Z,973.85
2017-01-06T09:07:12.018Z,973.88
2017-01-06T09:08:13.827Z,973.88
2017-01-06T09:09:12.462Z,973.87
2017-01-06T09:10:13.066Z,973.90
2017-01-06T09:11:14.765Z,973.90
2017-01-06T09:12:11.897Z,973.92
2017-01-06T09:13:14.078Z,973.92
2017-01-06T09:14:12.288Z,973.95
2017-01-06T09:15:12.008Z,973.89
2017-01-06T09:16:13.784Z,973.92
2017-01-06T09:17:11.944Z,973.90
2017-01-06T09:18:12.076Z,973.97
2017-01-06T09:19:10.607Z,973.96
2017-01-06T09:20:12.489Z,974.00
2017-01-06T09:21:13.946Z,974.27
2017-01-06T09:22:12.545Z,974.07
2017-01-06T09:23:13.362Z,974.04
2017-01-06T09:24:12.646Z,974.02
2017-01-06T09:25:12.752Z,973.96
2017-01-06T09:26:11.834Z,973.99
2017-01-06T09:27:12.801Z,974.00
2017-01-06T09:28:11.957Z,974.00
2017-01-06T09:29:12.872Z,973.97
2017-01-06T09:30:11.845Z,973.99
2017-01-06T09:31:11.749Z,973.96
2017-01-06T09:32:12.643Z,973.97
2017-01-06T09:33:13.358Z,973.98
2017-01-06T09:34:10.613Z,973.97
2017-01-06T09:35:13.142Z,973.97
2017-01-06T09:36:12.191Z,973.96
2017-01-06T09:37:12.837Z,973.94
2017-01-06T09:38:13.497Z,973.94
2017-01-06T09:39:12.442Z,973.94
2017-01-06T09:40:13.693Z,973.90
2017-01-06T09:41:13.209Z,973.89
2017-01-06T09:42:12.922Z,973.92
2017-01-06T09:43:12.397Z,973.90
2017-01-06T09:44:12.921Z,973.93
2017-01-06T09:45:12.640Z,973.91
2017-01-06T09:46:12.744Z,973.89
2017-01-06T09:47:12.683Z,973.92
2017-01-06T09:48:15.077Z,973.92
2017-01-06T09:49:13.003Z,973.88
2017-01-06T09:50:12.084Z,973.93
2017-01-06T09:51:13.397Z,973.92
2017-01-06T09:52:12.396Z,973.89
2017-01-06T09:53:13.413Z,973.93
2017-01-06T09:54:12.987Z,973.90
2017-01-06T09:55:13.811Z,973.90
2017-01-06T09:56:11.947Z,973.92
2017-01-06T09:57:14.122Z,973.92
2017-01-06T09:58:12.870Z,973.91
2017-01-06T09:59:13.710Z,973.90
2017-01-06T10:00:12.780Z,973.97
2017-01-06T10:01:11.843Z,973.94
2017-01-06T10:02:13.856Z,973.93
2017-01-06T10:03:11.832Z,973.97
2017-01-06T10:04:13.358Z,973.94
2017-01-06T10:05:13.097Z,973.92
2017-01-06T10:06:12.738Z,973.90
2017-01-06T10:07:12.512Z,973.90
2017-01-06T10:08:11.671Z,973.87
2017-01-06T10:09:14.370Z,973.85
2017-01-06T10:10:12.906Z,973.88
2017-01-06T10:11:12.007Z,973.80
2017-01-06T10:12:13.630Z,973.86
2017-01-06T10:13:14.086Z,973.85
2017-01-06T10:14:12.105Z,973.87
2017-01-06T10:15:14.200Z,973.86
2017-01-06T10:16:12.263Z,973.83
2017-01-06T10:17:11.326Z,973.80
2017-01-06T10:18:10.659Z,973.80
2017-01-06T10:19:13.093Z,973.81
2017-01-06T10:20:14.779Z,973.79
2017-01-06T10:21:12.408Z,973.77
2017-01-06T10:22:12.375Z,973.78
2017-01-06T10:23:12.456Z,973.78
2017-01-06T10:24:10.511Z,973.73
2017-01-06T10:25:13.872Z,973.69
2017-01-06T10:26:13.506Z,973.72
2017-01-06T10:27:14.239Z,973.71
2017-01-06T10:28:12.613Z,973.74
2017-01-06T10:29:13.460Z,973.71
2017-01-06T10:30:12.562Z,973.70
2017-01-06T10:31:13.790Z,973.66
2017-01-06T10:32:11.849Z,973.66
2017-01-06T10:33:11.998Z,973.63
2017-01-06T10:34:12.067Z,973.65
2017-01-06T10:35:12.647Z,973.63
2017-01-06T10:36:14.028Z,973.62
2017-01-06T10:37:12.032Z,973.65
2017-01-06T10:38:10.717Z,973.59
2017-01-06T10:39:14.627Z,973.54
2017-01-06T10:40:12.695Z,973.56
2017-01-06T10:41:13.656Z,973.57
2017-01-06T10:42:13.114Z,973.59
2017-01-06T10:43:12.216Z,973.58
2017-01-06T10:44:12.247Z,973.55
2017-01-06T10:45:11.840Z,973.51
2017-01-06T10:46:13.837Z,973.52
2017-01-06T10:47:13.372Z,973.54
2017-01-06T10:48:14.071Z,973.49
2017-01-06T10:49:12.747Z,973.57
2017-01-06T10:50:10.111Z,973.51
2017-01-06T10:51:10.496Z,973.52
2017-01-06T10:52:13.341Z,973.49
2017-01-06T10:53:14.069Z,973.49
2017-01-06T10:54:12.610Z,973.51
2017-01-06T10:55:12.616Z,973.49
2017-01-06T10:56:15.657Z,973.47
2017-01-06T10:57:10.828Z,973.44
2017-01-06T10:58:13.605Z,973.44
2017-01-06T10:59:16.474Z,973.39
2017-01-06T11:00:12.679Z,973.43
2017-01-06T11:01:12.763Z,973.42
2017-01-06T11:02:12.102Z,973.42
2017-01-06T11:03:12.593Z,973.34
2017-01-06T11:04:16.750Z,973.45
2017-01-06T11:05:11.024Z,973.39
2017-01-06T11:06:12.144Z,973.41
2017-01-06T11:07:12.863Z,973.42
2017-01-06T11:08:11.919Z,973.42
2017-01-06T11:09:12.450Z,973.43
2017-01-06T11:10:12.936Z,973.39
2017-01-06T11:11:12.658Z,973.41
2017-01-06T11:12:13.517Z,973.37
2017-01-06T11:13:13.253Z,973.42
2017-01-06T11:14:12.373Z,973.40
2017-01-06T11:15:13.010Z,973.35
2017-01-06T11:16:12.668Z,973.34
2017-01-06T11:17:13.475Z,973.38
2017-01-06T11:18:11.324Z,973.39
2017-01-06T11:19:12.578Z,973.35
2017-01-06T11:20:13.215Z,973.30
2017-01-06T11:21:09.642Z,973.35
2017-01-06T11:22:13.624Z,973.32
2017-01-06T11:23:10.850Z,973.30
2017-01-06T11:24:11.823Z,973.29
2017-01-06T11:25:12.801Z,973.26
2017-01-06T11:26:12.431Z,973.25
2017-01-06T11:27:13.138Z,973.26
2017-01-06T11:28:09.541Z,973.22
2017-01-06T11:29:14.489Z,973.22
2017-01-06T11:30:13.364Z,973.21
2017-01-06T11:31:12.890Z,973.18
2017-01-06T11:32:13.806Z,973.13
2017-01-06T11:33:15.555Z,973.13
2017-01-06T11:34:14.003Z,973.16
2017-01-06T11:35:12.626Z,973.09
2017-01-06T11:36:12.646Z,973.10
2017-01-06T11:37:13.302Z,973.12
2017-01-06T11:38:13.391Z,973.08
2017-01-06T11:39:15.027Z,973.06
2017-01-06T11:40:10.094Z,973.09
2017-01-06T11:41:16.095Z,973.06
2017-01-06T11:42:12.116Z,973.04
2017-01-06T11:43:12.247Z,973.04
2017-01-06T11:44:14.983Z,973.03
2017-01-06T11:45:12.533Z,973.02
2017-01-06T11:46:13.322Z,972.97
2017-01-06T11:47:13.163Z,972.98
2017-01-06T11:48:12.857Z,972.99
2017-01-06T11:49:13.635Z,972.99
2017-01-06T11:50:13.419Z,972.97
2017-01-06T11:51:15.256Z,972.89
2017-01-06T11:52:09.842Z,972.90
2017-01-06T11:53:15.027Z,972.85
2017-01-06T11:54:13.975Z,972.86
2017-01-06T11:55:12.896Z,972.84
2017-01-06T11:56:11.897Z,972.88
2017-01-06T11:57:12.472Z,972.83
2017-01-06T11:58:12.556Z,972.86
2017-01-06T11:59:12.815Z,972.84
2017-01-06T12:00:13.314Z,972.84
2017-01-06T12:01:12.257Z,972.81
2017-01-06T12:02:12.896Z,972.84
2017-01-06T12:03:11.866Z,972.80
2017-01-06T12:04:12.655Z,972.79
2017-01-06T12:05:13.433Z,972.82
2017-01-06T12:06:13.434Z,972.79
2017-01-06T12:07:12.907Z,972.80
2017-01-06T12:08:12.825Z,972.78
2017-01-06T12:09:11.861Z,972.79
2017-01-06T12:10:14.532Z,972.74
2017-01-06T12:11:11.776Z,972.75
2017-01-06T12:12:10.086Z,972.80
2017-01-06T12:13:12.687Z,972.80
2017-01-06T12:14:13.306Z,972.78
2017-01-06T12:15:09.849Z,972.80
2017-01-06T12:16:12.538Z,972.76
2017-01-06T12:17:13.352Z,972.76
2017-01-06T12:18:11.565Z,972.76
2017-01-06T12:19:12.492Z,972.73
2017-01-06T12:20:12.344Z,972.73
2017-01-06T12:21:12.589Z,972.71
2017-01-06T12:22:15.640Z,972.69
2017-01-06T12:23:13.275Z,972.68
2017-01-06T12:24:12.309Z,972.67
2017-01-06T12:25:13.864Z,972.67
2017-01-06T12:26:13.852Z,972.63
2017-01-06T12:27:11.878Z,972.60
2017-01-06T12:28:12.523Z,972.66